Terminal Aerodrome Forecast
Issued by NWS Bismarck, ND

Home | Current Version | Previous Version | Text Only | Print | Product List | Glossary On
Versions: 1 2 3 4 5 6 7 8 9 10 11 12 13 14 15 16 17 18 19 20 21 22
000
FTUS43 KBIS 261100
TAFISN
TAF
KISN 261127Z 2612/2712 01006KT P6SM -SN SCT012 OVC020
      TEMPO 2612/2615 2SM -SN BR OVC012
     FM261500 05008KT P6SM OVC025
     FM262100 08005KT P6SM BKN030
     FM270300 12006KT P6SM BKN035
     FM270700 14010KT P6SM OVC025=

USA.gov is the U.S. government's official web portal to all federal, state and local government web resources and services.